createdAt,value
2023-04-18T00:01:27.107Z,99853.38
2023-04-18T00:03:53.831Z,99855.50
2023-04-18T00:06:21.856Z,99848.78
2023-04-18T00:08:48.408Z,99855.25
2023-04-18T00:11:15.020Z,99850.69
2023-04-18T00:13:41.549Z,99847.72
2023-04-18T00:16:08.597Z,99853.91
2023-04-18T00:18:35.344Z,99856.59
2023-04-18T00:21:02.048Z,99847.97
2023-04-18T00:23:29.969Z,99850.66
2023-04-18T00:25:56.546Z,99849.59
2023-04-18T00:28:23.118Z,99846.38
2023-04-18T00:30:49.839Z,99852.03
2023-04-18T00:33:16.522Z,99846.09
2023-04-18T00:35:43.175Z,99850.69
2023-04-18T00:38:10.099Z,99852.81
2023-04-18T00:40:46.806Z,99848.25
2023-04-18T00:43:13.909Z,99842.88
2023-04-18T00:45:40.434Z,99843.13
2023-04-18T00:48:07.421Z,99840.97
2023-04-18T00:50:33.969Z,99846.34
2023-04-18T00:53:00.756Z,99843.41
2023-04-18T00:55:27.525Z,99839.63
2023-04-18T00:57:55.714Z,99843.13
2023-04-18T01:00:22.442Z,99839.63
2023-04-18T01:02:49.046Z,99835.84
2023-04-18T01:05:15.838Z,99836.09
2023-04-18T01:07:43.165Z,99836.66
2023-04-18T01:10:10.808Z,99825.84
2023-04-18T01:12:37.402Z,99829.09
2023-04-18T01:15:06.777Z,99830.19
2023-04-18T01:17:33.442Z,99826.69
2023-04-18T01:20:00.166Z,99826.38
2023-04-18T01:22:26.956Z,99829.63
2023-04-18T01:24:54.870Z,99829.31
2023-04-18T01:27:21.480Z,99830.13
2023-04-18T01:29:48.053Z,99827.41
2023-04-18T01:32:14.933Z,99831.44
2023-04-18T01:34:41.512Z,99831.13
2023-04-18T01:37:08.109Z,99835.72
2023-04-18T01:39:34.723Z,99829.22
2023-04-18T01:42:02.814Z,99832.19
2023-04-18T01:44:29.489Z,99825.94
2023-04-18T01:46:56.117Z,99818.63
2023-04-18T01:49:22.730Z,99828.06
2023-04-18T01:51:49.461Z,99822.91
2023-04-18T01:54:16.378Z,99822.84
2023-04-18T01:56:43.120Z,99822.31
2023-04-18T01:59:11.051Z,99821.72
2023-04-18T02:01:37.557Z,99813.63
2023-04-18T02:04:04.070Z,99817.13
2023-04-18T02:06:30.590Z,99817.94
2023-04-18T02:08:57.156Z,99818.47
2023-04-18T02:11:23.726Z,99805.50
2023-04-18T02:13:50.322Z,99817.88
2023-04-18T02:16:18.308Z,99819.78
2023-04-18T02:18:45.018Z,99824.38
2023-04-18T02:21:11.490Z,99819.50
2023-04-18T02:23:38.150Z,99821.66
2023-04-18T02:26:04.808Z,99816.25
2023-04-18T02:28:31.526Z,99817.56
2023-04-18T02:30:59.954Z,99815.94
2023-04-18T02:33:27.892Z,99819.97
2023-04-18T02:35:54.617Z,99817.56
2023-04-18T02:38:21.123Z,99819.16
2023-04-18T02:40:47.833Z,99823.22
2023-04-18T02:43:14.428Z,99822.94
2023-04-18T02:45:41.011Z,99822.94
2023-04-18T02:48:07.731Z,99818.34
2023-04-18T02:50:35.820Z,99818.34
2023-04-18T02:53:02.395Z,99824.28
2023-04-18T02:55:28.943Z,99816.41
2023-04-18T02:57:55.638Z,99820.75
2023-04-18T03:00:22.359Z,99811.81
2023-04-18T03:02:49.011Z,99816.69
2023-04-18T03:05:16.073Z,99822.09
2023-04-18T03:07:43.941Z,99822.06
2023-04-18T03:10:10.830Z,99821.28
2023-04-18T03:12:37.517Z,99823.16
2023-04-18T03:15:04.963Z,99814.78
2023-04-18T03:17:31.605Z,99827.72
2023-04-18T03:19:58.256Z,99835.03
2023-04-18T03:22:25.005Z,99826.41
2023-04-18T03:24:53.048Z,99828.81
2023-04-18T03:27:19.566Z,99825.81
2023-04-18T03:29:46.229Z,99830.41
2023-04-18T03:32:12.734Z,99823.41
2023-04-18T03:34:39.477Z,99826.13
2023-04-18T03:37:06.012Z,99826.13
2023-04-18T03:39:32.671Z,99830.41
2023-04-18T03:42:00.557Z,99825.28
2023-04-18T03:44:27.250Z,99824.47
2023-04-18T03:46:54.035Z,99828.50
2023-04-18T03:49:20.522Z,99829.03
2023-04-18T03:51:47.715Z,99827.13
2023-04-18T03:54:14.978Z,99836.00
2023-04-18T03:56:42.009Z,99832.25
2023-04-18T03:59:10.230Z,99845.19
2023-04-18T04:01:37.422Z,99832.78
2023-04-18T04:04:04.766Z,99843.88
2023-04-18T04:06:31.517Z,99834.13
2023-04-18T04:08:58.351Z,99831.16
2023-04-18T04:11:24.912Z,99829.25
2023-04-18T04:13:51.666Z,99836.84
2023-04-18T04:16:19.614Z,99832.25
2023-04-18T04:18:46.164Z,99833.88
2023-04-18T04:21:12.825Z,99830.59
2023-04-18T04:23:39.403Z,99837.09
2023-04-18T04:26:05.974Z,99848.47
2023-04-18T04:28:32.698Z,99835.19
2023-04-18T04:30:59.301Z,99845.47
2023-04-18T04:33:27.437Z,99849.53
2023-04-18T04:35:54.198Z,99857.13
2023-04-18T04:38:21.141Z,99850.09
2023-04-18T04:40:47.855Z,99852.78
2023-04-18T04:43:14.622Z,99851.97
2023-04-18T04:45:41.465Z,99864.13
2023-04-18T04:48:08.340Z,99860.03
2023-04-18T04:50:37.530Z,99861.63
2023-04-18T04:53:04.597Z,99863.28
2023-04-18T04:55:31.394Z,99869.75
2023-04-18T04:57:57.917Z,99860.53
2023-04-18T05:00:24.682Z,99870.25
2023-04-18T05:02:51.957Z,99858.94
2023-04-18T05:05:18.640Z,99867.06
2023-04-18T05:07:46.705Z,99869.44
2023-04-18T05:10:13.286Z,99871.34
2023-04-18T05:12:39.964Z,99878.91
2023-04-18T05:15:07.364Z,99871.31
2023-04-18T05:17:33.988Z,99869.44
2023-04-18T05:20:00.552Z,99872.94
2023-04-18T05:22:27.090Z,99876.97
2023-04-18T05:24:55.127Z,99869.66
2023-04-18T05:27:21.748Z,99875.31
2023-04-18T05:29:48.347Z,99884.22
2023-04-18T05:32:14.954Z,99884.22
2023-04-18T05:34:41.555Z,99883.97
2023-04-18T05:37:08.093Z,99889.91
2023-04-18T05:39:34.661Z,99883.09
2023-04-18T05:42:02.700Z,99890.13
2023-04-18T05:44:29.449Z,99889.84
2023-04-18T05:46:56.083Z,99887.13
2023-04-18T05:49:22.800Z,99888.75
2023-04-18T05:51:49.491Z,99893.63
2023-04-18T05:54:16.592Z,99892.53
2023-04-18T05:56:43.326Z,99897.94
2023-04-18T05:59:11.421Z,99908.44
2023-04-18T06:01:38.188Z,99900.63
2023-04-18T06:04:05.442Z,99907.91
2023-04-18T06:06:32.575Z,99914.13
2023-04-18T06:08:59.257Z,99911.94
2023-04-18T06:11:25.898Z,99912.16
2023-04-18T06:13:52.429Z,99920.53
2023-04-18T06:16:20.394Z,99915.66
2023-04-18T06:18:47.075Z,99919.66
2023-04-18T06:21:13.689Z,99924.53
2023-04-18T06:23:40.266Z,99925.59
2023-04-18T06:26:06.815Z,99928.00
2023-04-18T06:28:33.566Z,99925.81
2023-04-18T06:31:00.096Z,99925.78
2023-04-18T06:33:28.396Z,99921.41
2023-04-18T06:35:55.097Z,99925.97
2023-04-18T06:38:21.634Z,99926.19
2023-04-18T06:40:48.399Z,99928.06
2023-04-18T06:43:14.915Z,99925.88
2023-04-18T06:45:41.636Z,99928.00
2023-04-18T06:48:08.316Z,99928.53
2023-04-18T06:50:36.281Z,99932.00
2023-04-18T06:53:02.887Z,99931.06
2023-04-18T06:55:29.626Z,99937.81
2023-04-18T06:57:56.364Z,99940.81
2023-04-18T07:00:22.975Z,99934.59
2023-04-18T07:02:49.663Z,99935.72
2023-04-18T07:05:16.370Z,99948.91
2023-04-18T07:07:44.372Z,99955.97
2023-04-18T07:10:11.199Z,99944.56
2023-04-18T07:12:37.783Z,99944.34
2023-04-18T07:15:05.296Z,99947.84
2023-04-18T07:17:31.970Z,99951.38
2023-04-18T07:19:58.770Z,99948.31
2023-04-18T07:22:25.501Z,99955.06
2023-04-18T07:24:53.471Z,99952.88
2023-04-18T07:27:19.995Z,99949.59
2023-04-18T07:29:46.683Z,99953.94
2023-04-18T07:32:13.269Z,99950.91
2023-04-18T07:34:39.791Z,99951.44
2023-04-18T07:37:06.406Z,99959.22
2023-04-18T07:39:33.008Z,99967.59
2023-04-18T07:42:01.022Z,99958.38
2023-04-18T07:44:27.716Z,99957.50
2023-04-18T07:46:54.321Z,99957.72
2023-04-18T07:49:20.936Z,99961.25
2023-04-18T07:51:47.669Z,99965.88
2023-04-18T07:54:14.335Z,99961.69
2023-04-18T07:56:40.983Z,99959.81
2023-04-18T07:59:08.880Z,99966.31
2023-04-18T08:01:35.424Z,99971.16
2023-04-18T08:04:02.302Z,99964.88
2023-04-18T08:06:29.073Z,99970.78
2023-04-18T08:08:55.686Z,99972.38
2023-04-18T08:11:22.252Z,99971.06
2023-04-18T08:13:48.833Z,99973.69
2023-04-18T08:16:17.449Z,99972.88
2023-04-18T08:18:44.264Z,99971.75
2023-04-18T08:21:11.086Z,99977.91
2023-04-18T08:23:37.660Z,99981.34
2023-04-18T08:26:04.317Z,99977.47
2023-04-18T08:28:30.984Z,99984.53
2023-04-18T08:30:57.551Z,99980.13
2023-04-18T08:33:25.554Z,99984.34
2023-04-18T08:35:52.149Z,99976.53
2023-04-18T08:38:19.095Z,99978.94
2023-04-18T08:40:46.184Z,99977.25
2023-04-18T08:43:14.309Z,99987.19
2023-04-18T08:45:41.318Z,99980.56
2023-04-18T08:48:11.560Z,99976.91
2023-04-18T08:50:39.685Z,99970.34
2023-04-18T08:53:06.241Z,99985.72
2023-04-18T08:55:32.865Z,99988.00
2023-04-18T08:57:59.687Z,99987.03
2023-04-18T09:00:26.416Z,99977.41
2023-04-18T09:02:53.817Z,99980.78
2023-04-18T09:05:20.899Z,99983.72
2023-04-18T09:07:49.642Z,99982.75
2023-04-18T09:10:25.626Z,99984.56
2023-04-18T09:12:52.380Z,99991.59
2023-04-18T09:15:21.060Z,99985.06
2023-04-18T09:17:49.756Z,99994.53
2023-04-18T09:20:27.437Z,99983.38
2023-04-18T09:22:55.371Z,99992.44
2023-04-18T09:25:26.759Z,99982.16
2023-04-18T09:27:53.434Z,99991.75
2023-04-18T09:30:37.076Z,99987.13
2023-04-18T09:33:05.698Z,99986.63
2023-04-18T09:35:32.345Z,99982.38
2023-04-18T09:38:38.016Z,99987.22
2023-04-18T09:41:09.263Z,99990.72
2023-04-18T09:43:35.857Z,99982.63
2023-04-18T09:46:04.188Z,99990.56
2023-04-18T09:48:31.196Z,99989.25
2023-04-18T09:50:59.986Z,99980.16
2023-04-18T09:56:44.178Z,99988.56
2023-04-18T09:59:11.992Z,99995.25
2023-04-18T10:01:39.234Z,99980.81
2023-04-18T10:04:06.080Z,99982.81
2023-04-18T10:06:34.296Z,99990.97
2023-04-18T10:09:03.486Z,99978.66
2023-04-18T10:11:30.904Z,99986.91
2023-04-18T10:14:02.818Z,99979.22
2023-04-18T10:16:29.988Z,99993.53
2023-04-18T10:18:56.733Z,99987.28
2023-04-18T10:21:23.293Z,99987.28
2023-04-18T10:23:50.281Z,99991.75
2023-04-18T10:26:16.922Z,99988.03
2023-04-18T10:28:51.206Z,99983.53
2023-04-18T10:31:19.216Z,99984.81
2023-04-18T10:36:17.860Z,99989.50
2023-04-18T10:38:47.948Z,99990.47
2023-04-18T10:41:20.216Z,99986.91
2023-04-18T10:44:16.144Z,99986.31
2023-04-18T10:47:20.201Z,99982.66
2023-04-18T10:49:55.440Z,99990.91
2023-04-18T10:52:22.048Z,99987.91
2023-04-18T10:54:52.552Z,99985.31
2023-04-18T10:57:19.138Z,100000.19
2023-04-18T10:59:48.933Z,99992.06
2023-04-18T11:02:23.914Z,99977.75
2023-04-18T11:04:51.510Z,99985.22
2023-04-18T11:07:18.296Z,99973.97
2023-04-18T11:09:52.178Z,99979.25
2023-04-18T11:12:18.778Z,99967.25
2023-04-18T11:14:46.528Z,99968.50
2023-04-18T11:17:22.092Z,99966.06
2023-04-18T11:19:48.894Z,99962.88
2023-04-18T11:22:16.120Z,99970.22
2023-04-18T11:24:42.673Z,99963.97
2023-04-18T11:27:10.420Z,99966.34
2023-04-18T11:29:37.140Z,99973.97
2023-04-18T11:32:06.322Z,99966.31
2023-04-18T11:34:34.533Z,99960.34
2023-04-18T11:37:01.627Z,99959.34
2023-04-18T11:39:28.296Z,99947.16
2023-04-18T11:41:55.085Z,99956.03
2023-04-18T11:44:24.159Z,99963.53
2023-04-18T11:46:50.756Z,99965.22
2023-04-18T11:49:27.675Z,99961.81
2023-04-18T11:51:55.902Z,99957.56
2023-04-18T11:54:39.147Z,99953.75
2023-04-18T11:57:06.668Z,99958.06
2023-04-18T11:59:33.335Z,99955.53
2023-04-18T12:02:12.586Z,99956.56
2023-04-18T12:04:51.005Z,99960.63
2023-04-18T12:07:31.916Z,99967.66
2023-04-18T12:09:58.659Z,99956.91
2023-04-18T12:12:25.491Z,99971.09
2023-04-18T12:15:01.496Z,99973.78
2023-04-18T12:17:28.566Z,99967.41
2023-04-18T12:19:55.186Z,99953.56
2023-04-18T12:25:18.535Z,99958.19
2023-04-18T12:27:53.329Z,99957.28
2023-04-18T12:30:20.454Z,99964.03
2023-04-18T12:32:47.675Z,99956.88
2023-04-18T12:35:17.880Z,99970.56
2023-04-18T12:37:44.632Z,99966.19
2023-04-18T12:40:11.761Z,99971.00
2023-04-18T12:42:39.885Z,99970.91
2023-04-18T12:45:07.976Z,99963.81
2023-04-18T12:47:34.613Z,99971.84
2023-04-18T12:50:01.686Z,99963.59
2023-04-18T12:52:28.302Z,99963.72
2023-04-18T12:54:54.862Z,99959.56
2023-04-18T12:57:21.533Z,99964.47
2023-04-18T12:59:49.471Z,99968.56
2023-04-18T13:02:16.063Z,99960.34
2023-04-18T13:04:42.934Z,99964.31
2023-04-18T13:07:09.627Z,99958.63
2023-04-18T13:09:36.433Z,99966.41
2023-04-18T13:12:03.200Z,99968.53
2023-04-18T13:14:29.793Z,99960.09
2023-04-18T13:16:57.677Z,99965.28
2023-04-18T13:19:24.401Z,99978.97
2023-04-18T13:21:50.998Z,99965.78
2023-04-18T13:24:17.514Z,99973.63
2023-04-18T13:26:44.033Z,99969.63
2023-04-18T13:29:10.571Z,99967.53
2023-04-18T13:31:37.180Z,99962.19
2023-04-18T13:34:05.170Z,99972.34
2023-04-18T13:36:31.903Z,99973.53
2023-04-18T13:38:58.994Z,99962.56
2023-04-18T13:41:25.495Z,99964.53
2023-04-18T13:43:52.037Z,99968.00
2023-04-18T13:46:18.735Z,99965.63
2023-04-18T13:48:45.365Z,99964.84
2023-04-18T13:51:13.278Z,99959.09
2023-04-18T13:53:39.796Z,99958.06
2023-04-18T13:56:06.781Z,99953.13
2023-04-18T13:58:33.328Z,99958.19
2023-04-18T14:01:00.145Z,99953.06
2023-04-18T14:03:27.001Z,99961.84
2023-04-18T14:05:53.722Z,99962.00
2023-04-18T14:08:21.926Z,99967.13
2023-04-18T14:10:48.622Z,99950.44
2023-04-18T14:13:15.117Z,99958.88
2023-04-18T14:15:41.697Z,99957.63
2023-04-18T14:18:08.301Z,99961.09
2023-04-18T14:20:35.875Z,99950.06
2023-04-18T14:23:02.446Z,99958.00
2023-04-18T14:25:30.654Z,99949.47
2023-04-18T14:28:05.207Z,99947.00
2023-04-18T14:30:31.949Z,99952.00
2023-04-18T14:32:58.721Z,99953.47
2023-04-18T14:35:25.284Z,99964.06
2023-04-18T14:37:52.015Z,99961.50
2023-04-18T14:40:18.953Z,99961.31
2023-04-18T14:42:46.857Z,99956.66
2023-04-18T14:45:13.619Z,99959.53
2023-04-18T14:47:40.548Z,99963.00
2023-04-18T14:50:08.595Z,99959.34
2023-04-18T14:52:35.341Z,99958.97
2023-04-18T14:55:02.037Z,99959.94
2023-04-18T14:57:31.534Z,99956.28
2023-04-18T14:59:59.665Z,99955.16
2023-04-18T15:02:26.518Z,99953.06
2023-04-18T15:04:53.560Z,99955.09
2023-04-18T15:07:20.281Z,99944.75
2023-04-18T15:09:46.862Z,99945.25
2023-04-18T15:12:13.578Z,99940.19
2023-04-18T15:14:40.166Z,99942.91
2023-04-18T15:17:08.130Z,99942.31
2023-04-18T15:19:34.711Z,99944.00
2023-04-18T15:22:01.319Z,99950.44
2023-04-18T15:24:27.911Z,99936.31
2023-04-18T15:26:54.507Z,99937.16
2023-04-18T15:29:21.136Z,99958.03
2023-04-18T15:31:47.713Z,99942.97
2023-04-18T15:34:15.854Z,99938.19
2023-04-18T15:36:42.510Z,99948.31
2023-04-18T15:39:09.310Z,99935.53
2023-04-18T15:41:37.331Z,99937.69
2023-04-18T15:44:05.563Z,99942.72
2023-04-18T15:46:34.001Z,99942.94
2023-04-18T15:49:00.591Z,99949.28
2023-04-18T15:51:28.659Z,99945.53
2023-04-18T15:53:55.226Z,99940.19
2023-04-18T15:56:21.764Z,99941.38
2023-04-18T15:58:48.306Z,99950.22
2023-04-18T16:01:15.085Z,99948.88
2023-04-18T16:03:41.857Z,99950.91
2023-04-18T16:06:09.459Z,99949.28
2023-04-18T16:08:37.932Z,99945.25
2023-04-18T16:11:04.624Z,99937.91
2023-04-18T16:13:31.149Z,99944.47
2023-04-18T16:15:57.848Z,99948.44
2023-04-18T16:18:24.538Z,99944.34
2023-04-18T16:20:51.370Z,99940.06
2023-04-18T16:23:17.872Z,99936.63
2023-04-18T16:25:45.822Z,99949.63
2023-04-18T16:28:12.558Z,99946.06
2023-04-18T16:30:39.239Z,99949.91
2023-04-18T16:33:05.955Z,99950.28
2023-04-18T16:35:32.580Z,99944.41
2023-04-18T16:37:59.257Z,99943.13
2023-04-18T16:40:26.014Z,99949.72
2023-04-18T16:42:53.897Z,99956.16
2023-04-18T16:45:20.388Z,99946.84
2023-04-18T16:47:47.139Z,99947.19
2023-04-18T16:50:14.123Z,99946.72
2023-04-18T16:52:40.717Z,99949.78
2023-04-18T16:55:07.860Z,99948.84
2023-04-18T16:57:34.535Z,99950.59
2023-04-18T17:00:02.701Z,99950.59
2023-04-18T17:02:29.721Z,99951.25
2023-04-18T17:04:56.636Z,99952.69
2023-04-18T17:07:23.294Z,99951.88
2023-04-18T17:09:50.004Z,99957.94
2023-04-18T17:12:16.568Z,99958.38
2023-04-18T17:14:43.104Z,99958.50
2023-04-18T17:17:11.068Z,99962.19
2023-04-18T17:19:37.641Z,99959.28
2023-04-18T17:22:04.181Z,99959.25
2023-04-18T17:24:30.736Z,99959.25
2023-04-18T17:26:57.505Z,99964.97
2023-04-18T17:29:24.723Z,99968.19
2023-04-18T17:31:52.011Z,99967.81
2023-04-18T17:34:19.999Z,99967.94
2023-04-18T17:36:46.674Z,99975.97
2023-04-18T17:39:13.426Z,99970.50
2023-04-18T17:41:40.090Z,99973.66
2023-04-18T17:44:06.756Z,99966.13
2023-04-18T17:46:33.767Z,99975.41
2023-04-18T17:49:00.399Z,99977.03
2023-04-18T17:51:28.375Z,99979.88
2023-04-18T17:53:54.966Z,99983.84
2023-04-18T17:56:24.133Z,99981.13
2023-04-18T17:58:50.678Z,99989.44
2023-04-18T18:01:18.577Z,99986.78
2023-04-18T18:03:46.184Z,99985.00
2023-04-18T18:06:13.982Z,99988.34
2023-04-18T18:08:42.570Z,99986.84
2023-04-18T18:11:09.287Z,99984.13
2023-04-18T18:13:35.834Z,99985.97
2023-04-18T18:16:02.623Z,99988.63
2023-04-18T18:18:29.330Z,99982.38
2023-04-18T18:20:57.530Z,99982.19
2023-04-18T18:23:24.770Z,99982.31
2023-04-18T18:25:52.866Z,99989.28
2023-04-18T18:28:19.413Z,99997.56
2023-04-18T18:30:45.989Z,100004.41
2023-04-18T18:33:12.552Z,100005.53
2023-04-18T18:35:39.069Z,100000.72
2023-04-18T18:38:05.744Z,100012.41
2023-04-18T18:40:32.302Z,100009.44
2023-04-18T18:43:00.578Z,100010.03
2023-04-18T18:45:27.434Z,100007.44
2023-04-18T18:47:54.213Z,100015.41
2023-04-18T18:50:20.872Z,100008.84
2023-04-18T18:52:47.426Z,100004.34
2023-04-18T18:55:13.949Z,100003.53
2023-04-18T18:57:40.544Z,100011.19
2023-04-18T19:00:09.514Z,100016.34
2023-04-18T19:02:36.306Z,100024.59
2023-04-18T19:05:03.455Z,100020.25
2023-04-18T19:07:30.308Z,100022.78
2023-04-18T19:09:56.919Z,100025.28
2023-04-18T19:12:23.595Z,100021.78
2023-04-18T19:14:50.141Z,100016.44
2023-04-18T19:17:18.116Z,100025.41
2023-04-18T19:19:44.648Z,100017.84
2023-04-18T19:22:11.163Z,100025.19
2023-04-18T19:24:37.856Z,100021.66
2023-04-18T19:27:04.528Z,100016.06
2023-04-18T19:29:32.857Z,100021.28
2023-04-18T19:31:59.656Z,100022.59
2023-04-18T19:34:27.550Z,100018.56
2023-04-18T19:36:54.219Z,100025.69
2023-04-18T19:39:20.753Z,100034.19
2023-04-18T19:41:47.325Z,100029.63
2023-04-18T19:44:13.886Z,100035.38
2023-04-18T19:46:40.538Z,100029.94
2023-04-18T19:49:07.141Z,100037.59
2023-04-18T19:51:35.029Z,100032.16
2023-04-18T19:54:01.590Z,100034.66
2023-04-18T19:56:28.189Z,100036.56
2023-04-18T19:58:54.934Z,100033.16
2023-04-18T20:01:21.561Z,100032.34
2023-04-18T20:03:48.349Z,100036.75
2023-04-18T20:06:16.656Z,100044.50
2023-04-18T20:08:44.555Z,100047.00
2023-04-18T20:11:12.362Z,100046.50
2023-04-18T20:13:38.991Z,100047.63
2023-04-18T20:16:07.183Z,100047.41
2023-04-18T20:18:33.853Z,100040.94
2023-04-18T20:21:00.393Z,100055.66
2023-04-18T20:23:26.964Z,100056.25
2023-04-18T20:25:55.044Z,100056.25
2023-04-18T20:28:21.556Z,100052.19
2023-04-18T20:30:48.345Z,100053.09
2023-04-18T20:33:15.075Z,100045.84
2023-04-18T20:35:41.777Z,100055.38
2023-04-18T20:38:08.354Z,100050.84
2023-04-18T20:40:35.163Z,100047.59
2023-04-18T20:43:03.057Z,100047.59
2023-04-18T20:45:29.728Z,100050.13
2023-04-18T20:47:56.952Z,100041.66
2023-04-18T20:50:23.566Z,100039.84
2023-04-18T20:52:50.264Z,100039.34
2023-04-18T20:55:16.788Z,100041.75
2023-04-18T20:57:43.396Z,100036.31
2023-04-18T21:00:12.908Z,100031.69
2023-04-18T21:02:40.158Z,100038.22
2023-04-18T21:05:07.572Z,100042.03
2023-04-18T21:07:34.530Z,100045.56
2023-04-18T21:10:01.064Z,100048.00
2023-04-18T21:12:27.906Z,100039.03
2023-04-18T21:14:54.470Z,100037.94
2023-04-18T21:17:22.505Z,100045.78
2023-04-18T21:19:49.522Z,100047.47
2023-04-18T21:22:17.083Z,100052.41
2023-04-18T21:24:43.892Z,100048.88
2023-04-18T21:27:10.652Z,100048.06
2023-04-18T21:29:37.376Z,100047.25
2023-04-18T21:32:04.562Z,100050.78
2023-04-18T21:34:32.607Z,100046.75
2023-04-18T21:36:59.200Z,100041.63
2023-04-18T21:39:26.920Z,100045.97
2023-04-18T21:41:53.557Z,100046.25
2023-04-18T21:44:20.143Z,100042.72
2023-04-18T21:46:46.815Z,100041.91
2023-04-18T21:49:13.556Z,100044.91
2023-04-18T21:51:41.421Z,100044.91
2023-04-18T21:54:08.061Z,100037.00
2023-04-18T21:56:37.302Z,100036.47
2023-04-18T21:59:03.884Z,100043.00
2023-04-18T22:01:30.679Z,100036.47
2023-04-18T22:03:57.406Z,100038.31
2023-04-18T22:06:24.124Z,100030.47
2023-04-18T22:08:52.185Z,100029.94
2023-04-18T22:11:18.962Z,100028.84
2023-04-18T22:13:45.580Z,100032.16
2023-04-18T22:16:12.198Z,100031.16
2023-04-18T22:18:38.857Z,100031.63
2023-04-18T22:21:05.686Z,100023.00
2023-04-18T22:23:32.350Z,100032.72
2023-04-18T22:26:00.305Z,100029.81
2023-04-18T22:28:27.064Z,100023.06
2023-04-18T22:30:53.859Z,100023.34
2023-04-18T22:33:20.490Z,100024.16
2023-04-18T22:35:47.166Z,100019.00
2023-04-18T22:38:14.168Z,100019.63
2023-04-18T22:40:40.703Z,100018.88
2023-04-18T22:43:08.578Z,100018.88
2023-04-18T22:45:35.262Z,100016.47
2023-04-18T22:48:01.882Z,100011.63
2023-04-18T22:50:28.604Z,100021.59
2023-04-18T22:52:55.229Z,100012.16
2023-04-18T22:55:22.030Z,100011.91
2023-04-18T22:57:48.634Z,100015.44
2023-04-18T23:00:16.950Z,100002.69
2023-04-18T23:02:43.791Z,100019.78
2023-04-18T23:05:10.615Z,100013.25
2023-04-18T23:07:37.206Z,100013.53
2023-04-18T23:10:05.396Z,100015.97
2023-04-18T23:12:32.014Z,100023.28
2023-04-18T23:14:58.616Z,100022.19
2023-04-18T23:17:26.553Z,100019.50
2023-04-18T23:19:53.119Z,100014.88
2023-04-18T23:22:19.769Z,100012.97
2023-04-18T23:24:46.374Z,100016.47
2023-04-18T23:27:12.953Z,100017.59
2023-04-18T23:29:39.552Z,100014.34
2023-04-18T23:32:23.772Z,100010.00
2023-04-18T23:34:51.767Z,100011.63
2023-04-18T23:37:18.329Z,100006.19
2023-04-18T23:39:44.859Z,100007.31
2023-04-18T23:42:11.620Z,100003.50
2023-04-18T23:44:38.240Z,100002.69
2023-04-18T23:47:05.079Z,100002.69
2023-04-18T23:49:31.704Z,99997.53
2023-04-18T23:51:59.581Z,100001.34
2023-04-18T23:54:26.245Z,99993.22
2023-04-18T23:56:58.150Z,100000.53
2023-04-18T23:59:24.683Z,99994.81
